createdAt,value
2019-03-31T00:06:18.272Z,11.10
2019-03-31T00:08:54.595Z,11.10
2019-03-31T00:11:30.117Z,11.10
2019-03-31T00:14:06.662Z,11.10
2019-03-31T00:16:42.206Z,11.10
2019-03-31T00:19:17.316Z,11.00
2019-03-31T00:21:52.563Z,10.90
2019-03-31T00:24:27.644Z,10.80
2019-03-31T00:27:02.817Z,10.80
2019-03-31T00:29:38.227Z,10.70
2019-03-31T00:32:13.377Z,10.70
2019-03-31T00:34:48.876Z,10.80
2019-03-31T00:37:24.062Z,10.80
2019-03-31T00:40:00.634Z,10.80
2019-03-31T00:47:48.525Z,10.70
2019-03-31T00:50:23.692Z,10.70
2019-03-31T00:52:58.774Z,10.70
2019-03-31T01:00:46.327Z,10.70
2019-03-31T01:05:58.166Z,10.90
2019-03-31T01:08:34.863Z,11.00
2019-03-31T01:11:13.703Z,11.00
2019-03-31T01:13:49.500Z,10.90
2019-03-31T01:16:26.619Z,11.00
2019-03-31T01:19:01.805Z,11.00
2019-03-31T01:21:37.290Z,11.00
2019-03-31T01:24:12.797Z,11.00
2019-03-31T01:26:48.673Z,10.90
2019-03-31T01:29:24.454Z,10.90
2019-03-31T01:31:59.639Z,10.90
2019-03-31T01:34:34.696Z,10.80
2019-03-31T01:37:11.045Z,10.80
2019-03-31T01:39:46.523Z,10.70
2019-03-31T01:42:22.221Z,10.60
2019-03-31T01:44:57.307Z,10.60
2019-03-31T01:47:32.859Z,10.60
2019-03-31T01:50:11.620Z,10.60
2019-03-31T01:52:47.222Z,10.50
2019-03-31T01:55:22.356Z,10.50
2019-03-31T01:57:57.803Z,10.50
2019-03-31T02:00:44.356Z,10.50
2019-03-31T02:03:20.841Z,10.40
2019-03-31T02:05:58.416Z,10.40
2019-03-31T02:08:33.488Z,10.30
2019-03-31T02:11:09.512Z,10.20
2019-03-31T02:13:45.669Z,10.20
2019-03-31T02:16:21.023Z,10.10
2019-03-31T02:18:56.376Z,10.10
2019-03-31T02:21:31.458Z,10.00
2019-03-31T02:24:06.813Z,10.00
2019-03-31T02:26:41.882Z,9.90
2019-03-31T02:29:16.933Z,10.00
2019-03-31T02:31:52.012Z,9.90
2019-03-31T02:34:27.070Z,9.90
2019-03-31T02:37:02.303Z,9.80
2019-03-31T02:39:37.774Z,9.80
2019-03-31T02:42:12.940Z,9.70
2019-03-31T02:44:48.462Z,9.60
2019-03-31T02:47:25.750Z,9.60
2019-03-31T02:50:01.953Z,9.60
2019-03-31T02:52:37.321Z,9.50
2019-03-31T03:00:24.741Z,9.50
2019-03-31T03:03:04.011Z,9.40
2019-03-31T03:05:41.432Z,9.40
2019-03-31T03:08:18.509Z,9.40
2019-03-31T03:10:53.857Z,9.30
2019-03-31T03:13:34.842Z,9.20
2019-03-31T03:16:18.527Z,9.20
2019-03-31T03:18:53.639Z,9.20
2019-03-31T03:21:28.930Z,9.20
2019-03-31T03:24:04.159Z,9.10
2019-03-31T03:26:39.263Z,9.10
2019-03-31T03:29:14.785Z,9.10
2019-03-31T03:34:24.498Z,9.10
2019-03-31T03:36:59.696Z,9.00
2019-03-31T03:39:35.114Z,8.90
2019-03-31T03:42:10.560Z,8.90
2019-03-31T03:44:46.309Z,8.90
2019-03-31T03:47:21.440Z,8.90
2019-03-31T03:49:56.904Z,8.80
2019-03-31T03:52:32.030Z,8.80
2019-03-31T03:55:07.078Z,8.70
2019-03-31T04:00:17.137Z,8.70
2019-03-31T04:08:01.525Z,8.60
2019-03-31T04:10:46.472Z,8.60
2019-03-31T04:13:22.117Z,8.50
2019-03-31T04:15:57.190Z,8.50
2019-03-31T04:18:33.212Z,8.50
2019-03-31T04:21:08.282Z,8.40
2019-03-31T04:23:43.309Z,8.40
2019-03-31T04:26:18.362Z,8.40
2019-03-31T04:28:53.505Z,8.40
2019-03-31T04:34:03.276Z,8.40
2019-03-31T04:36:38.407Z,8.40
2019-03-31T04:39:13.665Z,8.30
2019-03-31T04:41:48.954Z,8.20
2019-03-31T04:44:24.019Z,8.20
2019-03-31T04:46:59.050Z,8.20
2019-03-31T04:49:34.139Z,8.20
2019-03-31T04:52:09.187Z,8.20
2019-03-31T04:54:44.531Z,8.10
2019-03-31T04:57:19.925Z,8.10
2019-03-31T04:59:55.303Z,8.20
2019-03-31T05:02:30.353Z,8.10
2019-03-31T05:05:05.397Z,8.10
2019-03-31T05:07:41.323Z,8.10
2019-03-31T05:10:17.322Z,8.10
2019-03-31T05:12:52.813Z,8.10
2019-03-31T05:15:27.861Z,8.10
2019-03-31T05:18:03.475Z,8.10
2019-03-31T05:20:38.823Z,8.10
2019-03-31T05:23:14.824Z,8.10
2019-03-31T05:25:49.934Z,8.20
2019-03-31T05:28:25.066Z,8.20
2019-03-31T05:31:01.331Z,8.30
2019-03-31T05:33:41.488Z,8.30
2019-03-31T05:36:16.542Z,8.40
2019-03-31T05:38:52.573Z,8.40
2019-03-31T05:41:28.011Z,8.40
2019-03-31T05:44:05.773Z,8.40
2019-03-31T05:46:40.744Z,8.40
2019-03-31T05:49:17.127Z,8.40
2019-03-31T05:51:52.459Z,8.50
2019-03-31T05:54:27.736Z,8.60
2019-03-31T05:57:05.991Z,8.60
2019-03-31T05:59:41.021Z,8.60
2019-03-31T06:02:16.371Z,8.60
2019-03-31T06:04:51.497Z,8.60
2019-03-31T06:07:29.536Z,8.60
2019-03-31T06:10:06.652Z,8.60
2019-03-31T06:15:16.628Z,8.70
2019-03-31T06:17:51.666Z,8.60
2019-03-31T06:20:26.971Z,8.70
2019-03-31T06:23:02.043Z,8.70
2019-03-31T06:25:37.090Z,8.80
2019-03-31T06:28:12.525Z,8.90
2019-03-31T06:30:47.568Z,8.90
2019-03-31T06:33:22.778Z,8.80
2019-03-31T06:35:58.243Z,8.90
2019-03-31T06:38:33.550Z,8.90
2019-03-31T06:41:08.593Z,9.00
2019-03-31T06:43:43.718Z,9.10
2019-03-31T06:46:20.452Z,9.20
2019-03-31T06:48:55.519Z,9.20
2019-03-31T06:51:30.638Z,9.90
2019-03-31T06:54:05.690Z,11.50
2019-03-31T06:56:42.378Z,13.30
2019-03-31T06:59:17.475Z,14.90
2019-03-31T07:01:53.063Z,15.90
2019-03-31T07:04:28.155Z,16.30
2019-03-31T07:07:06.500Z,16.60
2019-03-31T07:09:41.637Z,17.00
2019-03-31T07:12:17.006Z,17.60
2019-03-31T07:14:53.913Z,18.00
2019-03-31T07:17:29.286Z,18.20
2019-03-31T07:20:07.540Z,18.80
2019-03-31T07:22:43.071Z,18.80
2019-03-31T07:25:18.657Z,18.90
2019-03-31T07:27:54.946Z,19.80
2019-03-31T07:30:30.981Z,19.30
2019-03-31T07:33:06.131Z,18.30
2019-03-31T07:35:41.640Z,17.10
2019-03-31T07:38:16.861Z,16.30
2019-03-31T07:40:54.022Z,15.30
2019-03-31T07:43:29.106Z,14.50
2019-03-31T07:46:04.728Z,13.50
2019-03-31T07:48:40.161Z,12.80
2019-03-31T07:51:15.317Z,12.30
2019-03-31T07:53:50.580Z,12.00
2019-03-31T07:56:26.349Z,11.70
2019-03-31T07:59:01.477Z,11.40
2019-03-31T08:01:36.602Z,11.30
2019-03-31T08:04:12.623Z,11.30
2019-03-31T08:06:51.411Z,11.20
2019-03-31T08:09:26.499Z,11.20
2019-03-31T08:12:03.498Z,11.10
2019-03-31T08:14:40.600Z,11.00
2019-03-31T08:17:16.239Z,10.90
2019-03-31T08:19:51.938Z,10.90
2019-03-31T08:22:29.133Z,10.80
2019-03-31T08:25:07.665Z,10.70
2019-03-31T08:27:43.096Z,10.80
2019-03-31T08:30:19.644Z,10.80
2019-03-31T08:32:55.115Z,10.80
2019-03-31T08:35:30.662Z,10.70
2019-03-31T08:38:05.745Z,11.30
2019-03-31T08:40:40.804Z,13.60
2019-03-31T08:43:17.197Z,16.20
2019-03-31T08:45:52.759Z,17.20
2019-03-31T08:48:28.919Z,16.50
2019-03-31T08:51:04.416Z,15.80
2019-03-31T08:53:39.478Z,14.90
2019-03-31T08:56:14.951Z,14.10
2019-03-31T08:58:50.303Z,13.50
2019-03-31T09:01:25.694Z,13.20
2019-03-31T09:04:01.079Z,12.80
2019-03-31T09:06:37.514Z,12.70
2019-03-31T09:09:12.564Z,12.70
2019-03-31T09:11:48.636Z,12.40
2019-03-31T09:14:24.190Z,12.40
2019-03-31T09:16:59.313Z,12.50
2019-03-31T09:19:34.695Z,12.30
2019-03-31T09:22:10.358Z,12.00
2019-03-31T09:24:45.432Z,11.90
2019-03-31T09:27:20.849Z,11.70
2019-03-31T09:29:57.107Z,11.40
2019-03-31T09:32:32.253Z,11.30
2019-03-31T09:35:08.931Z,11.10
2019-03-31T09:37:44.266Z,11.00
2019-03-31T09:40:19.548Z,10.90
2019-03-31T09:42:54.619Z,10.70
2019-03-31T09:45:29.742Z,10.70
2019-03-31T09:48:04.938Z,10.60
2019-03-31T09:50:40.397Z,10.70
2019-03-31T09:53:16.015Z,10.60
2019-03-31T09:55:51.519Z,10.70
2019-03-31T09:58:27.481Z,10.70
2019-03-31T10:01:02.937Z,10.70
2019-03-31T10:03:38.985Z,10.60
2019-03-31T10:06:29.263Z,10.70
2019-03-31T10:08:53.082Z,10.60
2019-03-31T10:11:28.446Z,10.50
2019-03-31T10:14:03.500Z,10.60
2019-03-31T10:16:39.632Z,10.70
2019-03-31T10:19:14.690Z,10.70
2019-03-31T10:21:51.095Z,10.80
2019-03-31T10:24:26.394Z,10.90
2019-03-31T10:27:01.530Z,11.10
2019-03-31T10:29:37.087Z,11.20
2019-03-31T10:32:13.463Z,11.40
2019-03-31T10:34:48.521Z,12.60
2019-03-31T10:37:24.479Z,14.10
2019-03-31T10:39:59.550Z,14.40
2019-03-31T10:42:35.275Z,14.10
2019-03-31T10:45:10.460Z,13.80
2019-03-31T10:47:45.831Z,13.30
2019-03-31T10:50:21.040Z,12.90
2019-03-31T10:52:56.501Z,12.70
2019-03-31T10:55:31.670Z,12.60
2019-03-31T10:58:06.799Z,12.70
2019-03-31T11:00:44.573Z,13.20
2019-03-31T11:03:18.928Z,13.90
2019-03-31T11:05:53.990Z,14.90
2019-03-31T11:08:30.382Z,15.60
2019-03-31T11:11:05.486Z,17.20
2019-03-31T11:13:40.535Z,19.30
2019-03-31T11:16:16.029Z,21.10
2019-03-31T11:18:53.726Z,22.20
2019-03-31T11:21:31.589Z,23.70
2019-03-31T11:24:08.963Z,24.60
2019-03-31T11:26:44.985Z,23.60
2019-03-31T11:29:20.451Z,22.00
2019-03-31T11:31:57.516Z,20.50
2019-03-31T11:34:33.532Z,19.20
2019-03-31T11:37:13.761Z,17.80
2019-03-31T11:39:46.621Z,16.80
2019-03-31T11:42:22.284Z,16.00
2019-03-31T11:44:57.812Z,15.20
2019-03-31T11:47:34.293Z,14.70
2019-03-31T11:50:11.063Z,14.20
2019-03-31T11:52:52.734Z,13.90
2019-03-31T11:55:28.294Z,13.70
2019-03-31T11:58:04.462Z,13.80
2019-03-31T12:00:42.350Z,14.70
2019-03-31T12:03:18.422Z,15.50
2019-03-31T12:05:54.069Z,17.00
2019-03-31T12:08:29.235Z,18.90
2019-03-31T12:11:04.593Z,21.00
2019-03-31T12:13:42.467Z,22.30
2019-03-31T12:16:17.670Z,23.30
2019-03-31T12:18:52.849Z,24.00
2019-03-31T12:21:28.010Z,23.20
2019-03-31T12:24:03.250Z,23.40
2019-03-31T12:34:46.399Z,26.40
2019-03-31T12:37:21.584Z,25.40
2019-03-31T12:42:33.742Z,25.50
2019-03-31T12:47:44.580Z,24.80
2019-03-31T12:50:21.014Z,23.10
2019-03-31T12:52:57.210Z,21.70
2019-03-31T12:55:32.421Z,20.30
2019-03-31T12:58:08.532Z,19.20
2019-03-31T13:00:43.710Z,19.00
2019-03-31T13:03:19.867Z,18.20
2019-03-31T13:05:55.075Z,17.40
2019-03-31T13:08:30.548Z,17.80
2019-03-31T13:11:07.017Z,19.40
2019-03-31T13:13:42.495Z,21.60
2019-03-31T13:16:17.671Z,23.10
2019-03-31T13:18:53.459Z,22.80
2019-03-31T13:21:29.611Z,21.70
2019-03-31T13:24:05.649Z,20.80
2019-03-31T13:26:41.166Z,21.10
2019-03-31T13:29:18.338Z,21.30
2019-03-31T13:31:55.886Z,21.70
2019-03-31T13:34:31.422Z,22.10
2019-03-31T13:37:08.594Z,22.00
2019-03-31T13:39:44.197Z,22.30
2019-03-31T13:42:19.852Z,22.80
2019-03-31T13:44:55.380Z,23.00
2019-03-31T13:47:30.592Z,23.30
2019-03-31T13:50:08.657Z,22.50
2019-03-31T13:52:48.087Z,21.50
2019-03-31T13:55:23.249Z,21.60
2019-03-31T13:58:02.814Z,22.40
2019-03-31T14:00:39.793Z,22.50
2019-03-31T14:03:15.227Z,22.30
2019-03-31T14:05:52.354Z,21.90
2019-03-31T14:08:27.637Z,21.30
2019-03-31T14:11:02.901Z,20.90
2019-03-31T14:13:38.436Z,20.90
2019-03-31T14:16:13.645Z,21.00
2019-03-31T14:18:48.897Z,21.10
2019-03-31T14:21:24.466Z,21.20
2019-03-31T14:24:01.517Z,20.40
2019-03-31T14:26:37.238Z,19.30
2019-03-31T14:29:13.413Z,19.40
2019-03-31T14:31:51.754Z,19.30
2019-03-31T14:34:25.365Z,19.20
2019-03-31T14:37:02.947Z,18.90
2019-03-31T14:39:38.499Z,18.40
2019-03-31T14:42:14.555Z,18.00
2019-03-31T14:44:49.919Z,17.70
2019-03-31T14:47:26.378Z,17.50
2019-03-31T14:50:06.590Z,18.00
2019-03-31T14:52:42.129Z,18.20
2019-03-31T14:55:17.351Z,18.60
2019-03-31T14:57:54.492Z,18.90
2019-03-31T15:00:30.003Z,19.10
2019-03-31T15:03:05.404Z,19.10
2019-03-31T15:05:42.793Z,19.00
2019-03-31T15:08:19.975Z,19.00
2019-03-31T15:10:59.023Z,19.00
2019-03-31T15:13:34.205Z,19.10
2019-03-31T15:16:09.419Z,18.80
2019-03-31T15:18:44.593Z,18.80
2019-03-31T15:21:19.849Z,18.80
2019-03-31T15:23:55.020Z,19.30
2019-03-31T15:26:30.699Z,19.60
2019-03-31T15:29:07.178Z,19.90
2019-03-31T15:31:43.288Z,20.20
2019-03-31T15:34:20.009Z,20.00
2019-03-31T15:36:55.560Z,20.50
2019-03-31T15:39:31.791Z,20.20
2019-03-31T15:42:08.962Z,19.70
2019-03-31T15:44:44.173Z,19.10
2019-03-31T15:47:20.683Z,18.50
2019-03-31T15:49:57.782Z,18.10
2019-03-31T15:52:34.144Z,17.40
2019-03-31T15:55:11.233Z,16.70
2019-03-31T15:57:47.331Z,16.30
2019-03-31T16:00:23.161Z,16.00
2019-03-31T16:03:00.657Z,15.80
2019-03-31T16:05:36.117Z,16.10
2019-03-31T16:08:11.782Z,16.40
2019-03-31T16:10:48.917Z,17.00
2019-03-31T16:13:24.604Z,17.40
2019-03-31T16:16:00.947Z,17.00
2019-03-31T16:18:36.800Z,16.40
2019-03-31T16:21:14.039Z,15.60
2019-03-31T16:23:51.674Z,14.90
2019-03-31T16:26:27.357Z,14.50
2019-03-31T16:29:03.399Z,14.00
2019-03-31T16:31:38.602Z,13.60
2019-03-31T16:34:15.293Z,13.20
2019-03-31T16:36:50.433Z,12.90
2019-03-31T16:39:37.111Z,12.70
2019-03-31T16:42:03.404Z,12.40
2019-03-31T16:44:39.771Z,12.30
2019-03-31T16:47:15.196Z,12.10
2019-03-31T16:49:55.037Z,12.00
2019-03-31T16:52:30.132Z,11.80
2019-03-31T16:55:06.149Z,11.70
2019-03-31T16:57:41.324Z,11.50
2019-03-31T17:00:17.575Z,11.50
2019-03-31T17:02:52.780Z,11.40
2019-03-31T17:05:28.423Z,11.40
2019-03-31T17:08:03.944Z,11.20
2019-03-31T17:10:41.154Z,11.00
2019-03-31T17:13:16.368Z,10.90
2019-03-31T17:15:51.633Z,10.70
2019-03-31T17:18:26.815Z,10.60
2019-03-31T17:21:03.476Z,10.50
2019-03-31T17:23:38.663Z,10.40
2019-03-31T17:26:13.892Z,10.20
2019-03-31T17:28:49.414Z,10.10
2019-03-31T17:31:24.622Z,10.00
2019-03-31T17:33:59.765Z,9.90
2019-03-31T17:36:35.164Z,9.80
2019-03-31T17:39:12.209Z,9.70
2019-03-31T17:41:47.393Z,9.60
2019-03-31T17:44:23.083Z,9.50
2019-03-31T17:46:58.627Z,9.40
2019-03-31T17:49:35.186Z,9.30
2019-03-31T17:52:10.647Z,9.30
2019-03-31T17:54:45.799Z,9.20
2019-03-31T17:57:22.499Z,9.00
2019-03-31T17:59:58.123Z,8.90
2019-03-31T18:02:34.593Z,8.90
2019-03-31T18:05:10.525Z,8.80
2019-03-31T18:07:45.646Z,8.80
2019-03-31T18:10:21.520Z,8.70
2019-03-31T18:12:57.744Z,8.60
2019-03-31T18:15:33.993Z,8.50
2019-03-31T18:18:09.137Z,8.40
2019-03-31T18:20:44.500Z,8.40
2019-03-31T18:23:19.523Z,8.40
2019-03-31T18:25:54.921Z,8.30
2019-03-31T18:28:30.078Z,8.20
2019-03-31T18:31:05.264Z,8.20
2019-03-31T18:33:40.390Z,8.10
2019-03-31T18:36:16.862Z,8.00
2019-03-31T18:38:51.948Z,8.00
2019-03-31T18:41:27.505Z,8.00
2019-03-31T18:44:02.906Z,7.90
2019-03-31T18:46:38.604Z,7.90
2019-03-31T18:49:14.051Z,7.80
2019-03-31T18:51:49.281Z,7.70
2019-03-31T18:54:26.479Z,7.70
2019-03-31T18:57:09.960Z,7.60
2019-03-31T18:59:51.144Z,7.60
2019-03-31T19:02:38.085Z,7.50
2019-03-31T19:05:25.976Z,7.40
2019-03-31T19:08:02.905Z,7.40
2019-03-31T19:10:56.908Z,7.30
2019-03-31T19:13:37.646Z,7.20
2019-03-31T19:16:18.881Z,7.20
2019-03-31T19:19:00.047Z,7.10
2019-03-31T19:21:54.793Z,7.10
2019-03-31T19:24:34.618Z,7.00
2019-03-31T19:27:11.999Z,7.00
2019-03-31T19:29:59.084Z,6.90
2019-03-31T19:32:40.408Z,6.90
2019-03-31T19:35:34.159Z,6.90
2019-03-31T19:38:32.854Z,6.80
2019-03-31T19:41:20.516Z,6.70
2019-03-31T19:44:01.600Z,6.70
2019-03-31T19:46:56.760Z,6.60
2019-03-31T19:49:51.545Z,6.60
2019-03-31T19:52:42.440Z,6.50
2019-03-31T19:55:22.807Z,6.40
2019-03-31T19:58:18.096Z,6.40
2019-03-31T20:01:14.958Z,6.40
2019-03-31T20:03:55.433Z,6.20
2019-03-31T20:06:35.781Z,6.20
2019-03-31T20:09:20.253Z,6.20
2019-03-31T20:12:04.190Z,6.10
2019-03-31T20:14:42.726Z,6.10
2019-03-31T20:17:22.425Z,6.10
2019-03-31T20:20:09.695Z,6.00
2019-03-31T20:22:57.254Z,5.90
2019-03-31T20:25:48.578Z,5.90
2019-03-31T20:28:42.850Z,5.80
2019-03-31T20:31:37.420Z,5.80
2019-03-31T20:34:31.928Z,5.80
2019-03-31T20:37:28.563Z,5.70
2019-03-31T20:40:23.455Z,5.60
2019-03-31T20:43:00.618Z,5.50
2019-03-31T20:45:35.654Z,5.60
2019-03-31T20:48:10.782Z,5.60
2019-03-31T20:50:46.248Z,5.60
2019-03-31T20:53:21.257Z,5.60
2019-03-31T20:55:56.307Z,5.50
2019-03-31T20:58:31.571Z,5.50
2019-03-31T21:01:09.918Z,5.50
2019-03-31T21:03:43.600Z,5.40
2019-03-31T21:06:18.622Z,5.40
2019-03-31T21:08:53.896Z,5.30
2019-03-31T21:11:29.055Z,5.30
2019-03-31T21:14:04.406Z,5.30
2019-03-31T21:16:39.435Z,5.30
2019-03-31T21:19:14.448Z,5.20
2019-03-31T21:21:49.822Z,5.20
2019-03-31T21:24:24.875Z,5.10
2019-03-31T21:27:00.199Z,5.10
2019-03-31T21:29:35.489Z,5.10
2019-03-31T21:32:10.518Z,5.10
2019-03-31T21:34:46.050Z,5.00
2019-03-31T21:37:21.317Z,5.00
2019-03-31T21:39:56.605Z,5.00
2019-03-31T21:42:31.899Z,4.90
2019-03-31T21:45:07.532Z,4.90
2019-03-31T21:47:42.817Z,4.80
2019-03-31T21:50:19.139Z,4.80
2019-03-31T21:52:54.476Z,4.70
2019-03-31T21:55:29.496Z,4.60
2019-03-31T21:58:04.978Z,4.60
2019-03-31T22:00:57.375Z,4.50
2019-03-31T22:03:34.075Z,4.50
2019-03-31T22:06:09.087Z,4.40
2019-03-31T22:08:44.123Z,4.30
2019-03-31T22:11:19.137Z,4.30
2019-03-31T22:13:54.182Z,4.30
2019-03-31T22:16:29.275Z,4.30
2019-03-31T22:19:04.716Z,4.30
2019-03-31T22:21:40.151Z,4.30
2019-03-31T22:24:15.789Z,4.30
2019-03-31T22:26:50.810Z,4.20
2019-03-31T22:29:25.857Z,4.20
2019-03-31T22:32:00.877Z,4.10
2019-03-31T22:34:36.446Z,4.10
2019-03-31T22:37:11.467Z,4.10
2019-03-31T22:39:46.818Z,4.00
2019-03-31T22:42:22.737Z,4.00
2019-03-31T22:44:58.118Z,4.00
2019-03-31T22:47:33.458Z,4.00
2019-03-31T22:50:08.843Z,4.00
2019-03-31T22:52:43.879Z,4.00
2019-03-31T22:55:18.914Z,4.00
2019-03-31T22:57:53.950Z,4.00
2019-03-31T23:00:29.049Z,3.90
2019-03-31T23:03:04.389Z,3.90
2019-03-31T23:05:41.366Z,3.90
2019-03-31T23:08:16.379Z,3.80
2019-03-31T23:10:51.741Z,3.70
2019-03-31T23:13:26.771Z,3.70
2019-03-31T23:16:01.810Z,3.70
2019-03-31T23:18:37.270Z,3.60
2019-03-31T23:21:12.312Z,3.60
2019-03-31T23:23:47.633Z,3.70
2019-03-31T23:26:22.688Z,3.60
2019-03-31T23:28:57.781Z,3.60
2019-03-31T23:31:33.722Z,3.60
2019-03-31T23:34:09.623Z,3.50
2019-03-31T23:36:44.651Z,3.60
2019-03-31T23:39:19.670Z,3.50
2019-03-31T23:41:55.577Z,3.40
2019-03-31T23:44:30.615Z,3.40
2019-03-31T23:47:05.717Z,3.40
2019-03-31T23:49:40.743Z,3.40
2019-03-31T23:52:16.248Z,3.30
2019-03-31T23:54:51.653Z,3.30
2019-03-31T23:57:40.129Z,3.20
